createdAt,value
2017-12-09T00:00:49.284Z,5.07
2017-12-09T00:01:49.292Z,4.92
2017-12-09T00:02:49.302Z,5
2017-12-09T00:03:49.579Z,5
2017-12-09T00:04:49.651Z,5
2017-12-09T00:05:49.340Z,5
2017-12-09T00:06:49.620Z,4.99
2017-12-09T00:07:49.621Z,5.05
2017-12-09T00:08:49.632Z,5.05
2017-12-09T00:09:49.647Z,5.04
2017-12-09T00:10:49.652Z,4.99
2017-12-09T00:11:49.662Z,4.99
2017-12-09T00:12:49.407Z,4.99
2017-12-09T00:13:49.688Z,4.96
2017-12-09T00:14:49.700Z,5.04
2017-12-09T00:15:49.434Z,5.07
2017-12-09T00:16:49.723Z,5.07
2017-12-09T00:17:49.721Z,5.02
2017-12-09T00:18:49.740Z,5.02
2017-12-09T00:19:49.740Z,5.08
2017-12-09T00:20:49.755Z,5.04
2017-12-09T00:21:49.762Z,5.07
2017-12-09T00:22:49.517Z,5.08
2017-12-09T00:23:49.784Z,5.08
2017-12-09T00:24:49.805Z,5.07
2017-12-09T00:25:49.539Z,5.07
2017-12-09T00:26:49.293Z,5.08
2017-12-09T00:27:49.566Z,5.08
2017-12-09T00:28:49.579Z,5
2017-12-09T00:29:49.851Z,5.04
2017-12-09T00:30:49.868Z,5
2017-12-09T00:31:49.870Z,5.05
2017-12-09T00:32:49.888Z,5.07
2017-12-09T00:33:49.888Z,5.04
2017-12-09T00:34:49.901Z,5
2017-12-09T00:35:49.640Z,5.05
2017-12-09T00:36:49.928Z,4.92
2017-12-09T00:37:49.938Z,5.02
2017-12-09T00:38:49.672Z,4.92
2017-12-09T00:39:49.952Z,4.96
2017-12-09T00:40:49.970Z,5.08
2017-12-09T00:41:49.976Z,4.94
2017-12-09T00:42:49.985Z,4.97
2017-12-09T00:43:49.993Z,4.92
2017-12-09T00:44:50.018Z,4.92
2017-12-09T00:45:49.746Z,4.92
2017-12-09T00:46:50.034Z,4.86
2017-12-09T00:47:49.772Z,4.99
2017-12-09T00:48:50.059Z,4.97
2017-12-09T00:49:50.056Z,4.94
2017-12-09T00:50:50.082Z,4.9
2017-12-09T00:51:50.080Z,4.9
2017-12-09T00:52:49.820Z,4.9
2017-12-09T00:53:49.829Z,4.9
2017-12-09T00:54:50.118Z,4.9
2017-12-09T00:55:50.119Z,4.93
2017-12-09T00:56:50.150Z,4.89
2017-12-09T00:57:49.611Z,4.86
2017-12-09T00:58:50.176Z,4.87
2017-12-09T00:59:49.894Z,4.89
2017-12-09T01:00:50.182Z,4.87
2017-12-09T01:01:50.182Z,4.87
2017-12-09T01:02:50.262Z,4.87
2017-12-09T01:03:50.207Z,4.92
2017-12-09T01:04:50.216Z,4.78
2017-12-09T01:05:50.233Z,4.82
2017-12-09T01:06:50.235Z,4.77
2017-12-09T01:07:50.249Z,4.82
2017-12-09T01:08:49.988Z,4.84
2017-12-09T01:09:50.268Z,4.8
2017-12-09T01:10:50.284Z,4.73
2017-12-09T01:11:50.285Z,4.86
2017-12-09T01:12:50.026Z,4.75
2017-12-09T01:13:50.037Z,4.84
2017-12-09T01:14:50.311Z,4.84
2017-12-09T01:15:50.322Z,4.84
2017-12-09T01:16:50.543Z,4.8
2017-12-09T01:17:50.347Z,4.82
2017-12-09T01:18:50.365Z,4.77
2017-12-09T01:19:50.368Z,4.87
2017-12-09T01:20:50.380Z,4.75
2017-12-09T01:21:50.387Z,4.8
2017-12-09T01:22:50.128Z,4.82
2017-12-09T01:23:50.413Z,4.7
2017-12-09T01:24:50.428Z,4.8
2017-12-09T01:25:50.442Z,4.67
2017-12-09T01:26:50.442Z,4.68
2017-12-09T01:27:50.468Z,4.75
2017-12-09T01:28:50.470Z,4.7
2017-12-09T01:29:50.200Z,4.75
2017-12-09T01:30:50.501Z,4.75
2017-12-09T01:31:50.234Z,4.73
2017-12-09T01:32:50.511Z,4.71
2017-12-09T01:33:50.509Z,4.55
2017-12-09T01:34:50.513Z,4.7
2017-12-09T01:35:50.524Z,4.6
2017-12-09T01:36:50.011Z,4.66
2017-12-09T01:37:50.284Z,4.62
2017-12-09T01:38:50.808Z,4.58
2017-12-09T01:39:50.567Z,4.71
2017-12-09T01:40:50.603Z,4.6
2017-12-09T01:41:50.589Z,4.6
2017-12-09T01:42:50.619Z,4.58
2017-12-09T01:43:50.622Z,4.58
2017-12-09T01:44:50.359Z,4.6
2017-12-09T01:45:50.629Z,4.6
2017-12-09T01:46:50.652Z,4.59
2017-12-09T01:47:50.659Z,4.58
2017-12-09T01:48:50.665Z,4.63
2017-12-09T01:49:50.678Z,4.62
2017-12-09T01:50:50.682Z,4.56
2017-12-09T01:51:50.686Z,4.58
2017-12-09T01:52:50.712Z,4.59
2017-12-09T01:53:50.707Z,4.59
2017-12-09T01:54:50.733Z,4.62
2017-12-09T01:55:50.733Z,4.56
2017-12-09T01:56:50.489Z,4.6
2017-12-09T01:57:50.746Z,4.59
2017-12-09T01:58:50.767Z,4.53
2017-12-09T01:59:50.767Z,4.52
2017-12-09T02:00:50.812Z,4.52
2017-12-09T02:01:50.792Z,4.6
2017-12-09T02:02:50.842Z,4.59
2017-12-09T02:03:50.806Z,4.55
2017-12-09T02:04:50.571Z,4.6
2017-12-09T02:05:50.563Z,4.53
2017-12-09T02:06:50.913Z,4.56
2017-12-09T02:07:50.583Z,4.63
2017-12-09T02:08:50.864Z,4.56
2017-12-09T02:09:50.602Z,4.55
2017-12-09T02:10:50.884Z,4.58
2017-12-09T02:11:50.889Z,4.6
2017-12-09T02:12:50.641Z,4.71
2017-12-09T02:13:50.661Z,4.6
2017-12-09T02:14:50.952Z,4.71
2017-12-09T02:15:50.664Z,4.59
2017-12-09T02:16:50.949Z,4.62
2017-12-09T02:17:50.684Z,4.58
2017-12-09T02:18:50.960Z,4.59
2017-12-09T02:19:50.705Z,4.62
2017-12-09T02:20:50.984Z,4.62
2017-12-09T02:21:50.990Z,4.55
2017-12-09T02:22:50.744Z,4.62
2017-12-09T02:23:51.016Z,4.62
2017-12-09T02:24:51.031Z,4.56
2017-12-09T02:25:51.032Z,4.59
2017-12-09T02:26:51.251Z,4.58
2017-12-09T02:27:50.790Z,4.62
2017-12-09T02:28:50.529Z,4.58
2017-12-09T02:29:51.070Z,4.59
2017-12-09T02:30:51.090Z,4.59
2017-12-09T02:31:50.826Z,4.58
2017-12-09T02:32:50.845Z,4.56
2017-12-09T02:33:50.577Z,4.58
2017-12-09T02:34:51.120Z,4.58
2017-12-09T02:35:51.151Z,4.62
2017-12-09T02:36:50.872Z,4.68
2017-12-09T02:37:50.888Z,4.6
2017-12-09T02:38:51.161Z,4.62
2017-12-09T02:39:51.178Z,4.67
2017-12-09T02:40:50.914Z,4.7
2017-12-09T02:41:50.930Z,4.74
2017-12-09T02:42:51.198Z,4.59
2017-12-09T02:43:51.222Z,4.56
2017-12-09T02:44:50.954Z,4.56
2017-12-09T02:45:50.968Z,4.58
2017-12-09T02:46:50.984Z,4.59
2017-12-09T02:47:51.249Z,4.59
2017-12-09T02:48:51.269Z,4.62
2017-12-09T02:49:51.067Z,4.58
2017-12-09T02:50:51.279Z,4.58
2017-12-09T02:51:51.293Z,4.59
2017-12-09T02:52:51.033Z,4.62
2017-12-09T02:53:51.310Z,4.59
2017-12-09T02:54:51.324Z,4.6
2017-12-09T02:55:50.801Z,4.59
2017-12-09T02:56:51.077Z,4.56
2017-12-09T02:57:51.089Z,4.55
2017-12-09T02:58:51.094Z,4.55
2017-12-09T02:59:51.389Z,4.59
2017-12-09T03:00:51.388Z,4.59
2017-12-09T03:01:51.390Z,4.59
2017-12-09T03:02:51.408Z,4.59
2017-12-09T03:03:51.409Z,4.62
2017-12-09T03:04:51.441Z,4.62
2017-12-09T03:05:51.443Z,4.56
2017-12-09T03:06:51.447Z,4.55
2017-12-09T03:07:51.459Z,4.62
2017-12-09T03:08:51.469Z,4.63
2017-12-09T03:09:51.217Z,4.58
2017-12-09T03:10:51.501Z,4.55
2017-12-09T03:11:51.229Z,4.66
2017-12-09T03:12:51.519Z,4.58
2017-12-09T03:13:51.251Z,4.56
2017-12-09T03:14:51.548Z,4.66
2017-12-09T03:15:51.265Z,4.59
2017-12-09T03:16:51.555Z,4.59
2017-12-09T03:17:51.555Z,4.6
2017-12-09T03:18:51.574Z,4.59
2017-12-09T03:19:51.567Z,4.6
2017-12-09T03:20:51.587Z,4.58
2017-12-09T03:21:51.594Z,4.7
2017-12-09T03:22:51.336Z,4.73
2017-12-09T03:23:51.613Z,4.71
2017-12-09T03:24:51.629Z,4.63
2017-12-09T03:25:51.637Z,4.7
2017-12-09T03:26:51.660Z,4.74
2017-12-09T03:27:51.652Z,4.6
2017-12-09T03:28:51.670Z,4.66
2017-12-09T03:29:51.409Z,4.75
2017-12-09T03:30:51.432Z,4.74
2017-12-09T03:31:51.159Z,4.68
2017-12-09T03:32:51.440Z,4.56
2017-12-09T03:33:51.712Z,4.58
2017-12-09T03:34:51.478Z,4.59
2017-12-09T03:35:51.732Z,4.59
2017-12-09T03:36:51.749Z,4.59
2017-12-09T03:37:51.754Z,4.59
2017-12-09T03:38:51.497Z,4.62
2017-12-09T03:39:51.507Z,4.6
2017-12-09T03:40:51.795Z,4.56
2017-12-09T03:41:51.800Z,4.58
2017-12-09T03:42:51.802Z,4.59
2017-12-09T03:43:51.818Z,4.6
2017-12-09T03:44:51.825Z,4.6
2017-12-09T03:45:51.832Z,4.62
2017-12-09T03:46:51.590Z,4.62
2017-12-09T03:47:51.856Z,4.56
2017-12-09T03:48:51.596Z,4.59
2017-12-09T03:49:51.878Z,4.6
2017-12-09T03:50:51.893Z,4.58
2017-12-09T03:51:51.631Z,4.59
2017-12-09T03:52:51.647Z,4.6
2017-12-09T03:53:51.921Z,4.6
2017-12-09T03:54:51.670Z,4.62
2017-12-09T03:55:51.937Z,4.59
2017-12-09T03:56:51.690Z,4.62
2017-12-09T03:57:52.011Z,4.6
2017-12-09T03:58:51.968Z,4.56
2017-12-09T03:59:51.976Z,4.56
2017-12-09T04:00:51.720Z,4.66
2017-12-09T04:01:51.996Z,4.6
2017-12-09T04:02:51.746Z,4.62
2017-12-09T04:03:51.755Z,4.66
2017-12-09T04:04:52.028Z,4.62
2017-12-09T04:05:52.030Z,4.59
2017-12-09T04:06:52.053Z,4.6
2017-12-09T04:07:52.054Z,4.59
2017-12-09T04:08:52.061Z,4.62
2017-12-09T04:09:52.081Z,4.58
2017-12-09T04:10:52.092Z,4.58
2017-12-09T04:11:52.099Z,4.63
2017-12-09T04:12:52.103Z,4.63
2017-12-09T04:13:52.113Z,4.59
2017-12-09T04:14:52.126Z,4.59
2017-12-09T04:15:52.134Z,4.59
2017-12-09T04:16:52.144Z,4.58
2017-12-09T04:17:52.157Z,4.6
2017-12-09T04:18:52.170Z,4.58
2017-12-09T04:19:52.176Z,4.56
2017-12-09T04:20:52.185Z,4.58
2017-12-09T04:21:52.205Z,4.62
2017-12-09T04:22:51.942Z,4.58
2017-12-09T04:23:52.218Z,4.58
2017-12-09T04:24:52.226Z,4.62
2017-12-09T04:25:52.241Z,4.55
2017-12-09T04:26:52.250Z,4.68
2017-12-09T04:27:52.255Z,4.66
2017-12-09T04:28:52.260Z,4.6
2017-12-09T04:29:52.271Z,4.58
2017-12-09T04:30:52.026Z,4.55
2017-12-09T04:31:52.293Z,4.56
2017-12-09T04:32:52.315Z,4.59
2017-12-09T04:33:52.314Z,4.68
2017-12-09T04:34:52.058Z,4.58
2017-12-09T04:35:52.067Z,4.58
2017-12-09T04:36:52.345Z,4.68
2017-12-09T04:37:52.364Z,4.59
2017-12-09T04:38:52.368Z,4.6
2017-12-09T04:39:52.378Z,4.6
2017-12-09T04:40:52.388Z,4.6
2017-12-09T04:41:52.439Z,4.68
2017-12-09T04:42:52.406Z,4.58
2017-12-09T04:43:52.414Z,4.6
2017-12-09T04:44:52.424Z,4.74
2017-12-09T04:45:52.436Z,4.59
2017-12-09T04:46:52.442Z,4.56
2017-12-09T04:47:52.454Z,4.73
2017-12-09T04:48:52.459Z,4.74
2017-12-09T04:49:52.472Z,4.59
2017-12-09T04:50:52.219Z,4.74
2017-12-09T04:51:52.232Z,4.62
2017-12-09T04:52:52.237Z,4.68
2017-12-09T04:53:52.514Z,4.56
2017-12-09T04:54:52.522Z,4.59
2017-12-09T04:55:52.359Z,4.6
2017-12-09T04:56:52.539Z,4.56
2017-12-09T04:57:52.285Z,4.6
2017-12-09T04:58:52.566Z,4.59
2017-12-09T04:59:52.571Z,4.67
2017-12-09T05:00:52.581Z,4.62
2017-12-09T05:01:52.594Z,4.59
2017-12-09T05:03:24.411Z,4.59
2017-12-09T05:03:52.343Z,4.6
2017-12-09T05:04:52.620Z,4.62
2017-12-09T05:05:52.630Z,4.62
2017-12-09T05:06:52.378Z,4.6
2017-12-09T05:07:52.652Z,4.6
2017-12-09T05:08:52.401Z,4.58
2017-12-09T05:09:52.408Z,4.59
2017-12-09T05:10:52.548Z,4.59
2017-12-09T05:11:52.698Z,4.58
2017-12-09T05:12:52.709Z,4.6
2017-12-09T05:13:52.450Z,4.58
2017-12-09T05:14:52.719Z,4.55
2017-12-09T05:15:52.734Z,4.6
2017-12-09T05:16:52.754Z,4.56
2017-12-09T05:17:52.485Z,4.6
2017-12-09T05:18:52.768Z,4.56
2017-12-09T05:19:52.779Z,4.58
2017-12-09T05:20:52.782Z,4.58
2017-12-09T05:21:52.528Z,4.6
2017-12-09T05:22:52.538Z,4.6
2017-12-09T05:23:52.547Z,4.62
2017-12-09T05:24:52.823Z,4.62
2017-12-09T05:25:52.835Z,4.56
2017-12-09T05:26:52.843Z,4.59
2017-12-09T05:27:52.855Z,4.6
2017-12-09T05:28:52.862Z,4.56
2017-12-09T05:29:52.607Z,4.59
2017-12-09T05:30:52.624Z,4.58
2017-12-09T05:31:52.625Z,4.58
2017-12-09T05:32:52.639Z,4.53
2017-12-09T05:33:52.912Z,4.55
2017-12-09T05:34:53.048Z,4.55
2017-12-09T05:35:52.400Z,4.56
2017-12-09T05:36:52.959Z,4.58
2017-12-09T05:37:52.950Z,4.52
2017-12-09T05:38:52.963Z,4.56
2017-12-09T05:39:52.974Z,4.53
2017-12-09T05:40:52.757Z,4.53
2017-12-09T05:41:52.992Z,4.5
2017-12-09T05:42:53.009Z,4.45
2017-12-09T05:43:53.020Z,4.48
2017-12-09T05:44:53.020Z,4.5
2017-12-09T05:45:53.028Z,4.49
2017-12-09T05:46:52.780Z,4.5
2017-12-09T05:47:53.053Z,4.48
2017-12-09T05:48:53.065Z,4.49
2017-12-09T05:49:53.089Z,4.45
2017-12-09T05:50:53.081Z,4.5
2017-12-09T05:51:53.089Z,4.45
2017-12-09T05:52:52.858Z,4.44
2017-12-09T05:53:53.115Z,4.55
2017-12-09T05:54:53.132Z,4.44
2017-12-09T05:55:53.134Z,4.53
2017-12-09T05:56:53.152Z,4.48
2017-12-09T05:57:52.895Z,4.49
2017-12-09T05:58:53.166Z,4.55
2017-12-09T05:59:53.175Z,4.58
2017-12-09T06:00:52.914Z,4.5
2017-12-09T06:01:53.196Z,4.53
2017-12-09T06:02:52.942Z,4.58
2017-12-09T06:03:53.215Z,4.52
2017-12-09T06:04:53.239Z,4.55
2017-12-09T06:05:53.225Z,4.45
2017-12-09T06:06:52.979Z,4.55
2017-12-09T06:07:53.250Z,4.5
2017-12-09T06:08:53.261Z,4.59
2017-12-09T06:09:53.283Z,4.56
2017-12-09T06:10:53.288Z,4.49
2017-12-09T06:11:53.294Z,4.52
2017-12-09T06:12:53.305Z,4.53
2017-12-09T06:13:53.320Z,4.53
2017-12-09T06:14:53.054Z,4.44
2017-12-09T06:15:53.065Z,4.44
2017-12-09T06:16:53.340Z,4.48
2017-12-09T06:17:53.106Z,4.5
2017-12-09T06:18:53.096Z,4.5
2017-12-09T06:19:53.377Z,4.48
2017-12-09T06:20:53.378Z,4.52
2017-12-09T06:21:53.386Z,4.49
2017-12-09T06:22:53.134Z,4.49
2017-12-09T06:23:53.409Z,4.45
2017-12-09T06:24:53.427Z,4.5
2017-12-09T06:25:53.427Z,4.49
2017-12-09T06:26:53.443Z,4.48
2017-12-09T06:27:53.448Z,4.48
2017-12-09T06:28:53.456Z,4.5
2017-12-09T06:29:53.467Z,4.42
2017-12-09T06:30:53.210Z,4.41
2017-12-09T06:31:53.487Z,4.49
2017-12-09T06:32:53.233Z,4.41
2017-12-09T06:33:53.246Z,4.45
2017-12-09T06:34:53.586Z,4.5
2017-12-09T06:35:53.527Z,4.44
2017-12-09T06:36:53.590Z,4.49
2017-12-09T06:37:53.279Z,4.53
2017-12-09T06:38:53.567Z,4.49
2017-12-09T06:39:53.618Z,4.44
2017-12-09T06:40:53.585Z,4.42
2017-12-09T06:41:53.589Z,4.5
2017-12-09T06:42:53.603Z,4.53
2017-12-09T06:43:53.342Z,4.53
2017-12-09T06:44:53.352Z,4.52
2017-12-09T06:45:53.631Z,4.52
2017-12-09T06:46:53.650Z,4.56
2017-12-09T06:47:53.646Z,4.52
2017-12-09T06:48:53.393Z,4.53
2017-12-09T06:49:53.675Z,4.6
2017-12-09T06:50:53.708Z,4.52
2017-12-09T06:51:53.696Z,4.56
2017-12-09T06:52:53.694Z,4.58
2017-12-09T06:53:53.710Z,4.53
2017-12-09T06:54:53.180Z,4.6
2017-12-09T06:55:53.723Z,4.56
2017-12-09T06:56:53.733Z,4.58
2017-12-09T06:57:53.754Z,4.62
2017-12-09T06:58:53.755Z,4.59
2017-12-09T06:59:53.765Z,4.55
2017-12-09T07:00:53.519Z,4.59
2017-12-09T07:01:53.527Z,4.55
2017-12-09T07:02:53.544Z,4.59
2017-12-09T07:03:53.812Z,4.56
2017-12-09T07:04:53.822Z,4.6
2017-12-09T07:05:53.832Z,4.56
2017-12-09T07:06:53.837Z,4.59
2017-12-09T07:07:53.843Z,4.63
2017-12-09T07:08:53.590Z,4.63
2017-12-09T07:09:53.596Z,4.6
2017-12-09T07:10:53.883Z,4.58
2017-12-09T07:11:53.636Z,4.63
2017-12-09T07:12:53.630Z,4.56
2017-12-09T07:13:53.637Z,4.56
2017-12-09T07:14:53.921Z,4.59
2017-12-09T07:15:53.943Z,4.67
2017-12-09T07:16:53.934Z,4.62
2017-12-09T07:17:53.949Z,4.71
2017-12-09T07:18:53.693Z,4.68
2017-12-09T07:19:53.965Z,4.7
2017-12-09T07:20:53.972Z,4.74
2017-12-09T07:21:53.722Z,4.8
2017-12-09T07:22:54.001Z,4.86
2017-12-09T07:23:54.041Z,4.89
2017-12-09T07:24:54.016Z,4.8
2017-12-09T07:25:54.031Z,4.89
2017-12-09T07:26:54.032Z,4.89
2017-12-09T07:27:54.062Z,4.93
2017-12-09T07:28:54.059Z,4.94
2017-12-09T07:29:54.080Z,5.1
2017-12-09T07:30:54.083Z,4.94
2017-12-09T07:31:54.100Z,5.02
2017-12-09T07:32:54.101Z,4.96
2017-12-09T07:33:53.845Z,5.08
2017-12-09T07:34:54.116Z,5.08
2017-12-09T07:35:54.129Z,5.14
2017-12-09T07:36:54.142Z,5.07
2017-12-09T07:37:53.882Z,5.15
2017-12-09T07:38:54.163Z,5.1
2017-12-09T07:39:54.191Z,5.17
2017-12-09T07:40:54.180Z,5.21
2017-12-09T07:41:54.194Z,5.26
2017-12-09T07:42:53.929Z,5.23
2017-12-09T07:43:54.217Z,5.23
2017-12-09T07:44:53.953Z,5.2
2017-12-09T07:45:54.272Z,5.2
2017-12-09T07:46:54.240Z,5.26
2017-12-09T07:47:54.250Z,5.23
2017-12-09T07:48:54.003Z,5.25
2017-12-09T07:49:54.268Z,5.36
2017-12-09T07:50:54.286Z,5.33
2017-12-09T07:51:54.290Z,5.3
2017-12-09T07:52:54.040Z,5.3
2017-12-09T07:53:54.309Z,5.39
2017-12-09T07:54:54.325Z,5.35
2017-12-09T07:55:54.332Z,5.33
2017-12-09T07:56:54.343Z,5.38
2017-12-09T07:57:54.087Z,5.46
2017-12-09T07:58:54.094Z,5.5
2017-12-09T07:59:54.371Z,5.48
2017-12-09T08:00:53.846Z,5.39
2017-12-09T08:01:54.395Z,5.39
2017-12-09T08:02:54.132Z,5.41
2017-12-09T08:03:54.408Z,5.46
2017-12-09T08:04:54.166Z,5.41
2017-12-09T08:05:54.172Z,5.5
2017-12-09T08:06:54.178Z,5.43
2017-12-09T08:07:54.461Z,5.43
2017-12-09T08:08:54.192Z,5.57
2017-12-09T08:09:54.477Z,5.5
2017-12-09T08:10:54.484Z,5.54
2017-12-09T08:11:54.229Z,5.51
2017-12-09T08:12:54.237Z,5.54
2017-12-09T08:13:54.266Z,5.51
2017-12-09T08:14:54.525Z,5.53
2017-12-09T08:15:54.604Z,5.64
2017-12-09T08:16:54.619Z,5.61
2017-12-09T08:17:54.562Z,5.62
2017-12-09T08:18:54.567Z,5.64
2017-12-09T08:19:54.575Z,5.71
2017-12-09T08:20:54.332Z,5.64
2017-12-09T08:21:54.337Z,5.65
2017-12-09T08:22:54.610Z,5.64
2017-12-09T08:23:54.618Z,5.64
2017-12-09T08:24:54.640Z,5.71
2017-12-09T08:25:54.643Z,5.68
2017-12-09T08:26:54.651Z,5.69
2017-12-09T08:27:54.662Z,5.61
2017-12-09T08:28:54.687Z,5.59
2017-12-09T08:29:54.419Z,5.51
2017-12-09T08:30:54.708Z,5.5
2017-12-09T08:31:54.701Z,5.51
2017-12-09T08:32:54.716Z,5.46
2017-12-09T08:33:54.462Z,5.46
2017-12-09T08:34:54.735Z,5.41
2017-12-09T08:35:54.747Z,5.43
2017-12-09T08:36:54.765Z,5.3
2017-12-09T08:37:54.770Z,5.29
2017-12-09T08:38:54.791Z,5.33
2017-12-09T08:39:54.790Z,5.29
2017-12-09T08:40:54.801Z,5.25
2017-12-09T08:41:54.824Z,5.32
2017-12-09T08:42:54.833Z,5.38
2017-12-09T08:43:54.834Z,5.26
2017-12-09T08:44:54.842Z,5.35
2017-12-09T08:45:54.584Z,5.25
2017-12-09T08:46:54.869Z,5.2
2017-12-09T08:47:54.610Z,5.26
2017-12-09T08:48:54.901Z,5.23
2017-12-09T08:49:54.908Z,5.2
2017-12-09T08:50:54.908Z,5.33
2017-12-09T08:51:54.653Z,5.15
2017-12-09T08:52:54.929Z,5.18
2017-12-09T08:53:54.946Z,5.17
2017-12-09T08:54:54.950Z,5.3
2017-12-09T08:55:54.700Z,5.18
2017-12-09T08:56:54.982Z,5.25
2017-12-09T08:57:54.996Z,5.18
2017-12-09T08:58:54.726Z,5.23
2017-12-09T08:59:55.004Z,5.25
2017-12-09T09:00:55.013Z,5.25
2017-12-09T09:01:55.048Z,5.32
2017-12-09T09:02:55.036Z,5.23
2017-12-09T09:03:55.048Z,5.21
2017-12-09T09:04:54.797Z,5.26
2017-12-09T09:05:55.069Z,5.18
2017-12-09T09:06:55.084Z,5.18
2017-12-09T09:07:54.825Z,5.18
2017-12-09T09:08:55.100Z,5.14
2017-12-09T09:09:55.120Z,5.18
2017-12-09T09:10:55.135Z,5.23
2017-12-09T09:11:55.147Z,5.17
2017-12-09T09:12:54.883Z,5.14
2017-12-09T09:13:54.881Z,5.1
2017-12-09T09:14:55.173Z,5.11
2017-12-09T09:15:55.178Z,5.08
2017-12-09T09:16:55.194Z,5.11
2017-12-09T09:17:55.211Z,5.07
2017-12-09T09:18:55.212Z,5.1
2017-12-09T09:19:55.214Z,5.1
2017-12-09T09:20:55.358Z,4.97
2017-12-09T09:21:55.236Z,5
2017-12-09T09:22:55.267Z,4.97
2017-12-09T09:23:55.263Z,5.02
2017-12-09T09:24:55.275Z,4.97
2017-12-09T09:25:55.280Z,4.97
2017-12-09T09:26:55.444Z,4.99
2017-12-09T09:27:54.766Z,5.05
2017-12-09T09:28:55.193Z,4.99
2017-12-09T09:29:55.376Z,5.02
2017-12-09T09:30:55.069Z,4.94
2017-12-09T09:31:55.342Z,5.02
2017-12-09T09:32:55.086Z,5
2017-12-09T09:33:54.830Z,5.04
2017-12-09T09:34:55.376Z,4.93
2017-12-09T09:35:55.382Z,5.02
2017-12-09T09:36:55.391Z,4.99
2017-12-09T09:37:55.407Z,4.99
2017-12-09T09:38:55.418Z,4.99
2017-12-09T09:39:55.430Z,5.04
2017-12-09T09:40:55.435Z,4.99
2017-12-09T09:41:55.457Z,4.97
2017-12-09T09:42:55.454Z,4.92
2017-12-09T09:43:55.479Z,5.05
2017-12-09T09:44:55.217Z,4.96
2017-12-09T09:45:55.490Z,4.99
2017-12-09T09:46:55.230Z,5.04
2017-12-09T09:47:55.242Z,4.96
2017-12-09T09:48:55.252Z,5.05
2017-12-09T09:49:55.536Z,5.05
2017-12-09T09:50:55.273Z,5.12
2017-12-09T09:51:55.553Z,5.1
2017-12-09T09:52:55.297Z,5.08
2017-12-09T09:53:55.580Z,5.1
2017-12-09T09:54:55.582Z,5
2017-12-09T09:55:55.597Z,4.97
2017-12-09T09:56:55.607Z,4.93
2017-12-09T09:57:55.614Z,5.02
2017-12-09T09:58:55.621Z,4.96
2017-12-09T09:59:55.635Z,5
2017-12-09T10:00:55.379Z,4.99
2017-12-09T10:01:55.384Z,5
2017-12-09T10:02:55.396Z,4.99
2017-12-09T10:03:55.408Z,4.99
2017-12-09T10:04:55.421Z,5.08
2017-12-09T10:05:55.432Z,4.97
2017-12-09T10:06:55.712Z,5.02
2017-12-09T10:07:55.716Z,5.02
2017-12-09T10:08:55.727Z,4.87
2017-12-09T10:09:55.745Z,4.94
2017-12-09T10:10:55.222Z,4.94
2017-12-09T10:11:55.765Z,4.94
2017-12-09T10:12:55.511Z,4.94
2017-12-09T10:13:55.779Z,4.92
2017-12-09T10:14:55.523Z,4.93
2017-12-09T10:15:55.533Z,4.87
2017-12-09T10:16:55.808Z,4.92
2017-12-09T10:17:55.299Z,4.92
2017-12-09T10:18:55.837Z,4.89
2017-12-09T10:19:55.842Z,4.92
2017-12-09T10:20:55.854Z,4.8
2017-12-09T10:21:55.596Z,4.87
2017-12-09T10:22:55.871Z,4.89
2017-12-09T10:23:55.888Z,4.87
2017-12-09T10:24:55.891Z,4.9
2017-12-09T10:25:55.900Z,4.94
2017-12-09T10:26:55.384Z,4.87
2017-12-09T10:27:55.935Z,4.82
2017-12-09T10:28:55.668Z,4.89
2017-12-09T10:29:55.690Z,4.84
2017-12-09T10:30:55.960Z,4.87
2017-12-09T10:31:55.976Z,4.89
2017-12-09T10:32:55.716Z,4.89
2017-12-09T10:33:55.986Z,4.77
2017-12-09T10:34:55.998Z,4.84
2017-12-09T10:35:56.012Z,4.87
2017-12-09T10:36:56.015Z,4.89
2017-12-09T10:37:56.028Z,4.86
2017-12-09T10:38:56.041Z,4.82
2017-12-09T10:39:56.057Z,4.92
2017-12-09T10:40:56.058Z,4.84
2017-12-09T10:41:56.076Z,4.86
2017-12-09T10:42:56.080Z,4.9
2017-12-09T10:43:56.091Z,4.82
2017-12-09T10:44:56.105Z,4.89
2017-12-09T10:45:56.109Z,4.84
2017-12-09T10:46:56.124Z,4.82
2017-12-09T10:47:56.134Z,4.71
2017-12-09T10:48:55.874Z,4.82
2017-12-09T10:49:56.150Z,4.86
2017-12-09T10:50:55.944Z,4.84
2017-12-09T10:51:55.907Z,4.92
2017-12-09T10:52:56.195Z,4.74
2017-12-09T10:53:56.194Z,4.89
2017-12-09T10:54:55.941Z,4.89
2017-12-09T10:55:56.218Z,4.8
2017-12-09T10:56:56.003Z,4.78
2017-12-09T10:57:56.280Z,4.87
2017-12-09T10:58:56.242Z,4.89
2017-12-09T10:59:55.987Z,4.86
2017-12-09T11:00:56.000Z,4.82
2017-12-09T11:01:56.276Z,4.82
2017-12-09T11:02:55.754Z,4.8
2017-12-09T11:03:56.293Z,4.84
2017-12-09T11:04:56.040Z,4.74
2017-12-09T11:05:55.788Z,4.8
2017-12-09T11:06:56.328Z,4.9
2017-12-09T11:07:56.070Z,4.89
2017-12-09T11:08:56.347Z,4.8
2017-12-09T11:09:56.384Z,4.87
2017-12-09T11:10:56.366Z,4.9
2017-12-09T11:11:56.380Z,4.93
2017-12-09T11:12:55.859Z,4.87
2017-12-09T11:13:56.141Z,4.78
2017-12-09T11:14:56.149Z,4.89
2017-12-09T11:15:56.154Z,4.8
2017-12-09T11:16:56.428Z,4.8
2017-12-09T11:17:56.171Z,4.86
2017-12-09T11:18:56.461Z,4.94
2017-12-09T11:19:56.193Z,4.8
2017-12-09T11:20:56.208Z,4.82
2017-12-09T11:21:56.214Z,4.74
2017-12-09T11:22:55.961Z,4.82
2017-12-09T11:23:56.248Z,4.86
2017-12-09T11:24:56.628Z,4.8
2017-12-09T11:25:56.259Z,4.8
2017-12-09T11:26:56.527Z,4.89
2017-12-09T11:27:56.274Z,4.8
2017-12-09T11:28:56.290Z,4.84
2017-12-09T11:29:56.567Z,4.82
2017-12-09T11:30:56.571Z,4.78
2017-12-09T11:31:56.586Z,4.82
2017-12-09T11:32:56.594Z,4.84
2017-12-09T11:33:56.340Z,4.89
2017-12-09T11:34:56.351Z,4.86
2017-12-09T11:35:56.629Z,4.84
2017-12-09T11:36:56.646Z,4.84
2017-12-09T11:37:56.382Z,4.87
2017-12-09T11:38:56.654Z,4.87
2017-12-09T11:39:56.665Z,4.82
2017-12-09T11:40:56.673Z,4.82
2017-12-09T11:41:56.422Z,4.89
2017-12-09T11:42:56.433Z,4.84
2017-12-09T11:43:56.709Z,4.82
2017-12-09T11:44:56.452Z,4.86
2017-12-09T11:45:56.725Z,4.82
2017-12-09T11:46:56.741Z,4.9
2017-12-09T11:47:56.751Z,4.8
2017-12-09T11:48:56.766Z,4.9
2017-12-09T11:49:56.769Z,4.9
2017-12-09T11:50:56.783Z,4.9
2017-12-09T11:51:56.794Z,4.9
2017-12-09T11:52:56.804Z,4.92
2017-12-09T11:53:56.543Z,4.92
2017-12-09T11:54:56.560Z,4.86
2017-12-09T11:55:56.834Z,4.8
2017-12-09T11:56:56.572Z,4.89
2017-12-09T11:57:56.853Z,4.84
2017-12-09T11:58:56.874Z,4.92
2017-12-09T11:59:56.872Z,4.93
2017-12-09T12:00:56.616Z,4.9
2017-12-09T12:01:56.897Z,4.92
2017-12-09T12:02:56.654Z,4.92
2017-12-09T12:03:56.909Z,4.89
2017-12-09T12:04:56.925Z,4.9
2017-12-09T12:05:56.932Z,4.84
2017-12-09T12:06:56.946Z,4.9
2017-12-09T12:07:56.960Z,4.84
2017-12-09T12:08:56.961Z,4.84
2017-12-09T12:09:56.979Z,4.82
2017-12-09T12:10:56.982Z,4.82
2017-12-09T12:11:57.010Z,4.92
2017-12-09T12:12:57.002Z,4.82
2017-12-09T12:13:57.022Z,4.87
2017-12-09T12:14:57.025Z,4.87
2017-12-09T12:15:57.038Z,4.92
2017-12-09T12:16:56.779Z,4.9
2017-12-09T12:17:57.056Z,4.87
2017-12-09T12:18:57.075Z,4.96
2017-12-09T12:19:57.081Z,4.92
2017-12-09T12:20:56.559Z,4.9
2017-12-09T12:21:57.109Z,4.87
2017-12-09T12:22:57.184Z,4.93
2017-12-09T12:23:57.163Z,4.93
2017-12-09T12:24:57.169Z,4.89
2017-12-09T12:25:57.145Z,4.89
2017-12-09T12:26:56.885Z,4.9
2017-12-09T12:27:56.897Z,4.89
2017-12-09T12:28:57.174Z,4.94
2017-12-09T12:29:56.972Z,5.02
2017-12-09T12:30:57.027Z,5
2017-12-09T12:31:57.280Z,4.97
2017-12-09T12:32:57.211Z,5.02
2017-12-09T12:33:57.216Z,5
2017-12-09T12:34:57.231Z,5.05
2017-12-09T12:35:57.239Z,5.07
2017-12-09T12:36:57.254Z,5.08
2017-12-09T12:37:57.267Z,5.08
2017-12-09T12:38:57.054Z,5.11
2017-12-09T12:39:57.297Z,5.07
2017-12-09T12:40:57.297Z,5.08
2017-12-09T12:41:57.052Z,5.11
2017-12-09T12:42:56.841Z,5.08
2017-12-09T12:43:57.066Z,5.14
2017-12-09T12:44:57.333Z,5.11
2017-12-09T12:45:57.077Z,5.18
2017-12-09T12:46:57.361Z,5.2
2017-12-09T12:47:56.855Z,5.18
2017-12-09T12:48:57.421Z,5.2
2017-12-09T12:49:57.432Z,5.21
2017-12-09T12:50:57.441Z,5.21
2017-12-09T12:51:57.420Z,5.18
2017-12-09T12:52:57.415Z,5.2
2017-12-09T12:53:57.425Z,5.18
2017-12-09T12:54:57.206Z,5.14
2017-12-09T12:55:57.463Z,5.21
2017-12-09T12:56:57.198Z,5.17
2017-12-09T12:57:57.241Z,5.2
2017-12-09T12:58:57.480Z,5.23
2017-12-09T12:59:57.533Z,5.23
2017-12-09T13:00:57.538Z,5.2
2017-12-09T13:01:57.530Z,5.2
2017-12-09T13:02:56.986Z,5.18
2017-12-09T13:03:57.260Z,5.21
2017-12-09T13:04:57.012Z,5.23
2017-12-09T13:05:57.607Z,5.2
2017-12-09T13:06:57.568Z,5.29
2017-12-09T13:07:57.304Z,5.15
2017-12-09T13:08:57.585Z,5.2
2017-12-09T13:09:57.624Z,5.28
2017-12-09T13:10:57.340Z,5.15
2017-12-09T13:11:57.616Z,5.2
2017-12-09T13:12:57.717Z,5.25
2017-12-09T13:13:57.632Z,5.28
2017-12-09T13:14:57.645Z,5.26
2017-12-09T13:15:57.395Z,5.25
2017-12-09T13:16:57.684Z,5.15
2017-12-09T13:17:57.414Z,5.17
2017-12-09T13:18:57.694Z,5.23
2017-12-09T13:19:57.711Z,5.14
2017-12-09T13:20:57.712Z,5.2
2017-12-09T13:21:57.721Z,5.26
2017-12-09T13:22:57.736Z,5.23
2017-12-09T13:23:57.844Z,5.21
2017-12-09T13:24:57.520Z,5.28